sensor_id;sensor_type;location;lat;lon;timestamp;P1;durP1;ratioP1;P2;durP2;ratioP2
75814;SDS011;64451;45.574;14.224;2022-11-15T00:00:57;13.82;;;4.88;;
75814;SDS011;64451;45.574;14.224;2022-11-15T00:02:57;23.35;;;4.90;;
75814;SDS011;64451;45.574;14.224;2022-11-15T00:04:58;9.73;;;4.32;;
75814;SDS011;64451;45.574;14.224;2022-11-15T00:06:58;9.15;;;4.25;;
75814;SDS011;64451;45.574;14.224;2022-11-15T00:08:59;12.52;;;4.15;;
75814;SDS011;64451;45.574;14.224;2022-11-15T00:11:01;16.55;;;4.18;;
75814;SDS011;64451;45.574;14.224;2022-11-15T00:13:10;10.00;;;4.43;;
75814;SDS011;64451;45.574;14.224;2022-11-15T00:15:11;14.50;;;5.00;;
75814;SDS011;64451;45.574;14.224;2022-11-15T00:17:11;17.77;;;5.15;;
75814;SDS011;64451;45.574;14.224;2022-11-15T00:19:12;22.17;;;4.93;;
75814;SDS011;64451;45.574;14.224;2022-11-15T00:21:13;9.80;;;4.47;;
75814;SDS011;64451;45.574;14.224;2022-11-15T00:23:14;10.88;;;4.47;;
75814;SDS011;64451;45.574;14.224;2022-11-15T00:25:14;8.50;;;3.97;;
75814;SDS011;64451;45.574;14.224;2022-11-15T00:27:14;8.18;;;3.78;;
75814;SDS011;64451;45.574;14.224;2022-11-15T00:29:15;8.70;;;3.72;;
75814;SDS011;64451;45.574;14.224;2022-11-15T00:31:15;9.63;;;4.30;;
75814;SDS011;64451;45.574;14.224;2022-11-15T00:33:15;7.43;;;3.53;;
75814;SDS011;64451;45.574;14.224;2022-11-15T00:35:16;9.77;;;3.72;;
75814;SDS011;64451;45.574;14.224;2022-11-15T00:37:16;8.57;;;3.33;;
75814;SDS011;64451;45.574;14.224;2022-11-15T00:39:17;9.23;;;4.05;;
75814;SDS011;64451;45.574;14.224;2022-11-15T00:41:17;10.38;;;4.32;;
75814;SDS011;64451;45.574;14.224;2022-11-15T00:43:17;10.70;;;4.05;;
75814;SDS011;64451;45.574;14.224;2022-11-15T00:45:18;9.32;;;3.45;;
75814;SDS011;64451;45.574;14.224;2022-11-15T00:47:18;9.27;;;3.72;;
75814;SDS011;64451;45.574;14.224;2022-11-15T00:49:19;8.27;;;3.70;;
75814;SDS011;64451;45.574;14.224;2022-11-15T00:51:19;6.93;;;3.47;;
75814;SDS011;64451;45.574;14.224;2022-11-15T00:53:19;20.88;;;4.00;;
75814;SDS011;64451;45.574;14.224;2022-11-15T00:55:20;14.40;;;3.78;;
75814;SDS011;64451;45.574;14.224;2022-11-15T00:57:20;13.23;;;3.60;;
75814;SDS011;64451;45.574;14.224;2022-11-15T00:59:20;34.72;;;3.75;;
75814;SDS011;64451;45.574;14.224;2022-11-15T01:01:21;19.67;;;3.97;;
75814;SDS011;64451;45.574;14.224;2022-11-15T01:03:21;18.27;;;3.47;;
75814;SDS011;64451;45.574;14.224;2022-11-15T01:05:21;18.35;;;3.28;;
75814;SDS011;64451;45.574;14.224;2022-11-15T01:07:22;9.52;;;4.38;;
75814;SDS011;64451;45.574;14.224;2022-11-15T01:09:22;13.32;;;3.80;;
75814;SDS011;64451;45.574;14.224;2022-11-15T01:11:22;8.77;;;3.88;;
75814;SDS011;64451;45.574;14.224;2022-11-15T01:13:23;9.77;;;4.13;;
75814;SDS011;64451;45.574;14.224;2022-11-15T01:15:23;16.38;;;4.20;;
75814;SDS011;64451;45.574;14.224;2022-11-15T01:17:23;9.13;;;4.43;;
75814;SDS011;64451;45.574;14.224;2022-11-15T01:19:24;8.43;;;3.92;;
75814;SDS011;64451;45.574;14.224;2022-11-15T01:21:24;10.30;;;4.68;;
75814;SDS011;64451;45.574;14.224;2022-11-15T01:23:25;7.72;;;4.03;;
75814;SDS011;64451;45.574;14.224;2022-11-15T01:25:25;8.10;;;3.58;;
75814;SDS011;64451;45.574;14.224;2022-11-15T01:27:25;19.75;;;3.88;;
75814;SDS011;64451;45.574;14.224;2022-11-15T01:29:26;9.35;;;4.22;;
75814;SDS011;64451;45.574;14.224;2022-11-15T01:31:26;10.13;;;3.25;;
75814;SDS011;64451;45.574;14.224;2022-11-15T01:33:27;12.10;;;3.72;;
75814;SDS011;64451;45.574;14.224;2022-11-15T01:35:28;8.23;;;3.75;;
75814;SDS011;64451;45.574;14.224;2022-11-15T01:37:28;8.45;;;4.03;;
75814;SDS011;64451;45.574;14.224;2022-11-15T01:39:28;7.30;;;3.25;;
75814;SDS011;64451;45.574;14.224;2022-11-15T01:41:31;9.00;;;4.05;;
75814;SDS011;64451;45.574;14.224;2022-11-15T01:43:33;12.75;;;4.03;;
75814;SDS011;64451;45.574;14.224;2022-11-15T01:45:36;6.68;;;2.72;;
75814;SDS011;64451;45.574;14.224;2022-11-15T01:47:37;11.70;;;3.72;;
75814;SDS011;64451;45.574;14.224;2022-11-15T01:49:50;6.95;;;3.08;;
75814;SDS011;64451;45.574;14.224;2022-11-15T01:51:55;10.85;;;3.72;;
75814;SDS011;64451;45.574;14.224;2022-11-15T01:53:58;7.20;;;3.88;;
75814;SDS011;64451;45.574;14.224;2022-11-15T01:56:05;6.57;;;3.38;;
75814;SDS011;64451;45.574;14.224;2022-11-15T01:58:08;8.98;;;3.45;;
75814;SDS011;64451;45.574;14.224;2022-11-15T02:00:09;9.20;;;3.78;;
75814;SDS011;64451;45.574;14.224;2022-11-15T02:02:11;7.53;;;3.55;;
75814;SDS011;64451;45.574;14.224;2022-11-15T02:04:54;6.82;;;3.67;;
75814;SDS011;64451;45.574;14.224;2022-11-15T02:06:37;9.68;;;4.22;;
75814;SDS011;64451;45.574;14.224;2022-11-15T02:08:39;8.73;;;3.75;;
75814;SDS011;64451;45.574;14.224;2022-11-15T02:10:40;8.25;;;3.53;;
75814;SDS011;64451;45.574;14.224;2022-11-15T02:12:40;8.40;;;3.60;;
75814;SDS011;64451;45.574;14.224;2022-11-15T02:14:42;7.57;;;3.58;;
75814;SDS011;64451;45.574;14.224;2022-11-15T02:21:35;10.77;;;4.35;;
75814;SDS011;64451;45.574;14.224;2022-11-15T02:26:13;7.43;;;3.70;;
75814;SDS011;64451;45.574;14.224;2022-11-15T02:43:00;114.20;;;4.93;;
75814;SDS011;64451;45.574;14.224;2022-11-15T02:45:27;128.68;;;4.55;;
75814;SDS011;64451;45.574;14.224;2022-11-15T02:47:31;134.07;;;5.00;;
75814;SDS011;64451;45.574;14.224;2022-11-15T02:49:37;51.70;;;3.10;;
75814;SDS011;64451;45.574;14.224;2022-11-15T02:51:41;33.55;;;2.90;;
75814;SDS011;64451;45.574;14.224;2022-11-15T02:53:44;44.55;;;3.50;;
75814;SDS011;64451;45.574;14.224;2022-11-15T02:55:46;56.03;;;3.75;;
75814;SDS011;64451;45.574;14.224;2022-11-15T02:57:52;33.13;;;3.22;;
75814;SDS011;64451;45.574;14.224;2022-11-15T03:08:29;12.02;;;3.40;;
75814;SDS011;64451;45.574;14.224;2022-11-15T03:10:43;7.95;;;2.80;;
75814;SDS011;64451;45.574;14.224;2022-11-15T03:12:46;7.32;;;2.42;;
75814;SDS011;64451;45.574;14.224;2022-11-15T03:14:58;20.20;;;3.03;;
75814;SDS011;64451;45.574;14.224;2022-11-15T03:17:23;49.35;;;3.17;;
75814;SDS011;64451;45.574;14.224;2022-11-15T03:21:33;12.82;;;2.78;;
75814;SDS011;64451;45.574;14.224;2022-11-15T03:23:37;15.52;;;2.85;;
75814;SDS011;64451;45.574;14.224;2022-11-15T03:25:43;16.85;;;2.78;;
75814;SDS011;64451;45.574;14.224;2022-11-15T03:27:50;11.57;;;3.20;;
75814;SDS011;64451;45.574;14.224;2022-11-15T03:29:55;19.13;;;2.90;;
75814;SDS011;64451;45.574;14.224;2022-11-15T03:32:02;16.25;;;2.60;;
75814;SDS011;64451;45.574;14.224;2022-11-15T03:34:06;9.82;;;2.53;;
75814;SDS011;64451;45.574;14.224;2022-11-15T03:36:09;13.80;;;2.78;;
75814;SDS011;64451;45.574;14.224;2022-11-15T03:40:16;13.68;;;3.17;;
75814;SDS011;64451;45.574;14.224;2022-11-15T03:44:39;14.88;;;2.97;;
75814;SDS011;64451;45.574;14.224;2022-11-15T03:46:52;35.30;;;3.30;;
75814;SDS011;64451;45.574;14.224;2022-11-15T03:49:08;43.25;;;3.30;;
75814;SDS011;64451;45.574;14.224;2022-11-15T03:51:16;24.83;;;3.50;;
75814;SDS011;64451;45.574;14.224;2022-11-15T03:53:18;18.55;;;3.40;;
75814;SDS011;64451;45.574;14.224;2022-11-15T03:55:19;28.08;;;3.33;;
75814;SDS011;64451;45.574;14.224;2022-11-15T03:57:20;23.65;;;3.75;;
75814;SDS011;64451;45.574;14.224;2022-11-15T03:59:21;10.20;;;3.33;;
75814;SDS011;64451;45.574;14.224;2022-11-15T04:01:22;21.92;;;3.25;;
75814;SDS011;64451;45.574;14.224;2022-11-15T04:03:22;20.80;;;3.20;;
75814;SDS011;64451;45.574;14.224;2022-11-15T04:05:22;24.20;;;4.13;;
75814;SDS011;64451;45.574;14.224;2022-11-15T04:07:23;10.00;;;3.75;;
75814;SDS011;64451;45.574;14.224;2022-11-15T04:09:23;12.70;;;3.30;;
75814;SDS011;64451;45.574;14.224;2022-11-15T04:11:23;41.58;;;4.32;;
75814;SDS011;64451;45.574;14.224;2022-11-15T04:13:24;28.83;;;4.88;;
75814;SDS011;64451;45.574;14.224;2022-11-15T04:15:24;10.63;;;5.10;;
75814;SDS011;64451;45.574;14.224;2022-11-15T04:17:25;10.35;;;4.55;;
75814;SDS011;64451;45.574;14.224;2022-11-15T04:19:25;13.32;;;5.10;;
75814;SDS011;64451;45.574;14.224;2022-11-15T04:21:44;17.50;;;5.85;;
75814;SDS011;64451;45.574;14.224;2022-11-15T04:24:03;14.93;;;5.45;;
75814;SDS011;64451;45.574;14.224;2022-11-15T04:26:16;8.88;;;4.60;;
75814;SDS011;64451;45.574;14.224;2022-11-15T04:28:19;12.07;;;4.40;;
75814;SDS011;64451;45.574;14.224;2022-11-15T04:30:20;9.30;;;3.45;;
75814;SDS011;64451;45.574;14.224;2022-11-15T04:32:20;7.63;;;3.47;;
75814;SDS011;64451;45.574;14.224;2022-11-15T04:34:20;9.82;;;4.30;;
75814;SDS011;64451;45.574;14.224;2022-11-15T04:36:21;8.48;;;4.32;;
75814;SDS011;64451;45.574;14.224;2022-11-15T04:38:40;9.45;;;4.15;;
75814;SDS011;64451;45.574;14.224;2022-11-15T04:40:40;12.15;;;4.13;;
75814;SDS011;64451;45.574;14.224;2022-11-15T04:42:41;7.68;;;3.67;;
75814;SDS011;64451;45.574;14.224;2022-11-15T04:44:45;10.43;;;4.20;;
75814;SDS011;64451;45.574;14.224;2022-11-15T04:46:45;10.20;;;4.80;;
75814;SDS011;64451;45.574;14.224;2022-11-15T04:48:45;11.05;;;3.90;;
75814;SDS011;64451;45.574;14.224;2022-11-15T04:50:48;10.27;;;4.50;;
75814;SDS011;64451;45.574;14.224;2022-11-15T04:52:50;10.70;;;4.05;;
75814;SDS011;64451;45.574;14.224;2022-11-15T04:54:52;7.65;;;3.88;;
75814;SDS011;64451;45.574;14.224;2022-11-15T04:56:53;9.73;;;3.95;;
75814;SDS011;64451;45.574;14.224;2022-11-15T04:58:53;8.00;;;3.67;;
75814;SDS011;64451;45.574;14.224;2022-11-15T05:00:53;8.32;;;3.90;;
75814;SDS011;64451;45.574;14.224;2022-11-15T05:02:54;7.68;;;3.67;;
75814;SDS011;64451;45.574;14.224;2022-11-15T05:05:13;7.75;;;3.85;;
75814;SDS011;64451;45.574;14.224;2022-11-15T05:07:14;7.82;;;4.03;;
75814;SDS011;64451;45.574;14.224;2022-11-15T05:09:14;10.77;;;4.35;;
75814;SDS011;64451;45.574;14.224;2022-11-15T05:11:15;8.63;;;3.67;;
75814;SDS011;64451;45.574;14.224;2022-11-15T05:13:16;7.38;;;3.78;;
75814;SDS011;64451;45.574;14.224;2022-11-15T05:15:16;9.57;;;3.75;;
75814;SDS011;64451;45.574;14.224;2022-11-15T05:17:17;8.45;;;3.63;;
75814;SDS011;64451;45.574;14.224;2022-11-15T05:19:17;8.02;;;3.92;;
75814;SDS011;64451;45.574;14.224;2022-11-15T05:21:18;8.13;;;3.72;;
75814;SDS011;64451;45.574;14.224;2022-11-15T05:23:18;6.65;;;3.00;;
75814;SDS011;64451;45.574;14.224;2022-11-15T05:25:18;12.13;;;4.22;;
75814;SDS011;64451;45.574;14.224;2022-11-15T05:27:19;12.15;;;4.30;;
75814;SDS011;64451;45.574;14.224;2022-11-15T05:29:19;8.57;;;4.25;;
75814;SDS011;64451;45.574;14.224;2022-11-15T05:31:19;10.63;;;4.22;;
75814;SDS011;64451;45.574;14.224;2022-11-15T05:33:20;8.73;;;4.10;;
75814;SDS011;64451;45.574;14.224;2022-11-15T05:35:30;14.15;;;4.78;;
75814;SDS011;64451;45.574;14.224;2022-11-15T05:37:37;14.55;;;4.43;;
75814;SDS011;64451;45.574;14.224;2022-11-15T05:39:37;8.50;;;4.00;;
75814;SDS011;64451;45.574;14.224;2022-11-15T05:41:41;10.18;;;4.03;;
75814;SDS011;64451;45.574;14.224;2022-11-15T05:43:50;12.00;;;4.38;;
75814;SDS011;64451;45.574;14.224;2022-11-15T05:45:51;11.27;;;4.35;;
75814;SDS011;64451;45.574;14.224;2022-11-15T05:47:52;15.45;;;4.40;;
75814;SDS011;64451;45.574;14.224;2022-11-15T05:49:55;15.85;;;4.63;;
75814;SDS011;64451;45.574;14.224;2022-11-15T05:51:57;15.82;;;5.25;;
75814;SDS011;64451;45.574;14.224;2022-11-15T05:53:58;7.45;;;4.22;;
75814;SDS011;64451;45.574;14.224;2022-11-15T05:55:58;17.02;;;4.97;;
75814;SDS011;64451;45.574;14.224;2022-11-15T05:57:59;11.73;;;4.07;;
75814;SDS011;64451;45.574;14.224;2022-11-15T06:00:01;11.60;;;3.88;;
75814;SDS011;64451;45.574;14.224;2022-11-15T06:02:02;22.63;;;4.93;;
75814;SDS011;64451;45.574;14.224;2022-11-15T06:04:03;17.38;;;5.32;;
75814;SDS011;64451;45.574;14.224;2022-11-15T06:06:03;18.67;;;5.35;;
75814;SDS011;64451;45.574;14.224;2022-11-15T06:08:03;16.95;;;5.60;;
75814;SDS011;64451;45.574;14.224;2022-11-15T06:10:04;14.55;;;5.15;;
75814;SDS011;64451;45.574;14.224;2022-11-15T06:12:05;21.60;;;5.55;;
75814;SDS011;64451;45.574;14.224;2022-11-15T06:14:05;17.23;;;5.35;;
75814;SDS011;64451;45.574;14.224;2022-11-15T06:16:05;13.80;;;5.10;;
75814;SDS011;64451;45.574;14.224;2022-11-15T06:18:06;15.90;;;4.30;;
75814;SDS011;64451;45.574;14.224;2022-11-15T06:20:06;14.95;;;4.82;;
75814;SDS011;64451;45.574;14.224;2022-11-15T06:22:07;16.13;;;4.63;;
75814;SDS011;64451;45.574;14.224;2022-11-15T06:24:09;16.20;;;5.30;;
75814;SDS011;64451;45.574;14.224;2022-11-15T06:26:09;18.00;;;4.93;;
75814;SDS011;64451;45.574;14.224;2022-11-15T06:28:09;10.93;;;4.68;;
75814;SDS011;64451;45.574;14.224;2022-11-15T06:30:10;10.00;;;4.07;;
75814;SDS011;64451;45.574;14.224;2022-11-15T06:32:10;13.32;;;5.28;;
75814;SDS011;64451;45.574;14.224;2022-11-15T06:34:11;19.60;;;5.50;;
75814;SDS011;64451;45.574;14.224;2022-11-15T06:36:12;20.27;;;6.80;;
75814;SDS011;64451;45.574;14.224;2022-11-15T06:38:16;22.52;;;7.38;;
75814;SDS011;64451;45.574;14.224;2022-11-15T06:40:17;26.83;;;6.72;;
75814;SDS011;64451;45.574;14.224;2022-11-15T06:42:17;20.98;;;6.40;;
75814;SDS011;64451;45.574;14.224;2022-11-15T06:44:17;26.67;;;5.80;;
75814;SDS011;64451;45.574;14.224;2022-11-15T06:46:18;17.50;;;5.28;;
75814;SDS011;64451;45.574;14.224;2022-11-15T06:48:18;23.02;;;5.15;;
75814;SDS011;64451;45.574;14.224;2022-11-15T06:50:18;21.42;;;6.18;;
75814;SDS011;64451;45.574;14.224;2022-11-15T06:52:19;16.80;;;5.47;;
75814;SDS011;64451;45.574;14.224;2022-11-15T06:54:19;16.33;;;5.70;;
75814;SDS011;64451;45.574;14.224;2022-11-15T06:56:20;15.38;;;5.00;;
75814;SDS011;64451;45.574;14.224;2022-11-15T06:58:21;22.80;;;5.90;;
75814;SDS011;64451;45.574;14.224;2022-11-15T07:00:21;23.67;;;4.70;;
75814;SDS011;64451;45.574;14.224;2022-11-15T07:02:23;25.77;;;5.10;;
75814;SDS011;64451;45.574;14.224;2022-11-15T07:04:23;34.67;;;5.43;;
75814;SDS011;64451;45.574;14.224;2022-11-15T07:06:24;37.03;;;5.20;;
75814;SDS011;64451;45.574;14.224;2022-11-15T07:08:24;19.85;;;4.85;;
75814;SDS011;64451;45.574;14.224;2022-11-15T07:10:28;12.98;;;4.88;;
75814;SDS011;64451;45.574;14.224;2022-11-15T07:12:29;22.30;;;5.00;;
75814;SDS011;64451;45.574;14.224;2022-11-15T07:14:29;29.23;;;5.20;;
75814;SDS011;64451;45.574;14.224;2022-11-15T07:16:30;23.30;;;5.22;;
75814;SDS011;64451;45.574;14.224;2022-11-15T07:18:30;28.30;;;5.90;;
75814;SDS011;64451;45.574;14.224;2022-11-15T07:20:30;33.90;;;6.10;;
75814;SDS011;64451;45.574;14.224;2022-11-15T07:22:31;26.38;;;5.88;;
75814;SDS011;64451;45.574;14.224;2022-11-15T07:24:31;28.65;;;7.03;;
75814;SDS011;64451;45.574;14.224;2022-11-15T07:26:31;32.28;;;5.57;;
75814;SDS011;64451;45.574;14.224;2022-11-15T07:28:32;20.52;;;5.80;;
75814;SDS011;64451;45.574;14.224;2022-11-15T07:30:32;37.00;;;7.00;;
75814;SDS011;64451;45.574;14.224;2022-11-15T07:32:32;18.95;;;6.68;;
75814;SDS011;64451;45.574;14.224;2022-11-15T07:34:34;26.13;;;6.65;;
75814;SDS011;64451;45.574;14.224;2022-11-15T07:36:34;18.60;;;6.32;;
75814;SDS011;64451;45.574;14.224;2022-11-15T07:38:35;20.05;;;7.22;;
75814;SDS011;64451;45.574;14.224;2022-11-15T07:40:35;20.13;;;6.78;;
75814;SDS011;64451;45.574;14.224;2022-11-15T07:42:36;22.67;;;7.07;;
75814;SDS011;64451;45.574;14.224;2022-11-15T07:44:55;32.38;;;8.15;;
75814;SDS011;64451;45.574;14.224;2022-11-15T07:46:56;22.23;;;6.68;;
75814;SDS011;64451;45.574;14.224;2022-11-15T07:48:56;26.98;;;6.30;;
75814;SDS011;64451;45.574;14.224;2022-11-15T07:50:56;18.27;;;6.38;;
75814;SDS011;64451;45.574;14.224;2022-11-15T07:52:58;18.10;;;7.50;;
75814;SDS011;64451;45.574;14.224;2022-11-15T07:54:59;24.42;;;7.00;;
75814;SDS011;64451;45.574;14.224;2022-11-15T07:56:59;20.50;;;9.07;;
75814;SDS011;64451;45.574;14.224;2022-11-15T07:59:00;16.88;;;5.70;;
75814;SDS011;64451;45.574;14.224;2022-11-15T08:01:07;11.40;;;5.50;;
75814;SDS011;64451;45.574;14.224;2022-11-15T08:03:10;23.00;;;5.70;;
75814;SDS011;64451;45.574;14.224;2022-11-15T08:05:12;18.30;;;6.57;;
75814;SDS011;64451;45.574;14.224;2022-11-15T08:07:13;17.92;;;6.35;;
75814;SDS011;64451;45.574;14.224;2022-11-15T08:09:13;21.00;;;5.68;;
75814;SDS011;64451;45.574;14.224;2022-11-15T08:11:13;16.98;;;7.60;;
75814;SDS011;64451;45.574;14.224;2022-11-15T08:13:14;15.68;;;6.40;;
75814;SDS011;64451;45.574;14.224;2022-11-15T08:15:15;27.50;;;7.55;;
75814;SDS011;64451;45.574;14.224;2022-11-15T08:17:15;22.15;;;5.95;;
75814;SDS011;64451;45.574;14.224;2022-11-15T08:19:16;18.63;;;5.82;;
75814;SDS011;64451;45.574;14.224;2022-11-15T08:21:18;17.10;;;7.05;;
75814;SDS011;64451;45.574;14.224;2022-11-15T08:23:20;16.77;;;6.88;;
75814;SDS011;64451;45.574;14.224;2022-11-15T08:25:20;20.45;;;7.00;;
75814;SDS011;64451;45.574;14.224;2022-11-15T08:27:21;18.38;;;7.47;;
75814;SDS011;64451;45.574;14.224;2022-11-15T08:29:22;17.20;;;6.18;;
75814;SDS011;64451;45.574;14.224;2022-11-15T08:31:22;19.83;;;6.78;;
75814;SDS011;64451;45.574;14.224;2022-11-15T08:33:22;21.70;;;7.68;;
75814;SDS011;64451;45.574;14.224;2022-11-15T08:35:24;20.23;;;8.32;;
75814;SDS011;64451;45.574;14.224;2022-11-15T08:37:24;15.73;;;5.75;;
75814;SDS011;64451;45.574;14.224;2022-11-15T08:39:25;19.67;;;6.97;;
75814;SDS011;64451;45.574;14.224;2022-11-15T08:43:27;18.90;;;7.00;;
75814;SDS011;64451;45.574;14.224;2022-11-15T08:45:27;15.05;;;6.60;;
75814;SDS011;64451;45.574;14.224;2022-11-15T08:47:28;15.98;;;6.68;;
75814;SDS011;64451;45.574;14.224;2022-11-15T08:49:28;13.88;;;6.15;;
75814;SDS011;64451;45.574;14.224;2022-11-15T08:51:29;16.63;;;5.82;;
75814;SDS011;64451;45.574;14.224;2022-11-15T08:53:29;12.23;;;5.15;;
75814;SDS011;64451;45.574;14.224;2022-11-15T08:55:29;11.88;;;5.70;;
75814;SDS011;64451;45.574;14.224;2022-11-15T08:57:30;14.73;;;6.35;;
75814;SDS011;64451;45.574;14.224;2022-11-15T08:59:30;13.80;;;5.55;;
75814;SDS011;64451;45.574;14.224;2022-11-15T09:01:31;17.30;;;7.15;;
75814;SDS011;64451;45.574;14.224;2022-11-15T09:03:32;15.63;;;6.65;;
75814;SDS011;64451;45.574;14.224;2022-11-15T09:05:32;17.83;;;6.53;;
75814;SDS011;64451;45.574;14.224;2022-11-15T09:07:36;16.02;;;7.07;;
75814;SDS011;64451;45.574;14.224;2022-11-15T09:09:36;20.90;;;8.40;;
75814;SDS011;64451;45.574;14.224;2022-11-15T09:11:37;20.58;;;7.63;;
75814;SDS011;64451;45.574;14.224;2022-11-15T09:13:37;19.50;;;7.90;;
75814;SDS011;64451;45.574;14.224;2022-11-15T09:15:38;15.93;;;7.47;;
75814;SDS011;64451;45.574;14.224;2022-11-15T09:17:38;15.18;;;6.57;;
75814;SDS011;64451;45.574;14.224;2022-11-15T09:19:38;17.00;;;6.95;;
75814;SDS011;64451;45.574;14.224;2022-11-15T09:21:39;10.93;;;5.88;;
75814;SDS011;64451;45.574;14.224;2022-11-15T09:23:39;14.88;;;6.50;;
75814;SDS011;64451;45.574;14.224;2022-11-15T09:25:39;18.05;;;6.80;;
75814;SDS011;64451;45.574;14.224;2022-11-15T09:27:40;17.13;;;6.82;;
75814;SDS011;64451;45.574;14.224;2022-11-15T09:29:40;15.20;;;7.35;;
75814;SDS011;64451;45.574;14.224;2022-11-15T09:31:41;19.30;;;7.63;;
75814;SDS011;64451;45.574;14.224;2022-11-15T09:33:44;17.95;;;7.40;;
75814;SDS011;64451;45.574;14.224;2022-11-15T09:35:45;18.02;;;7.18;;
75814;SDS011;64451;45.574;14.224;2022-11-15T09:37:46;17.27;;;7.57;;
75814;SDS011;64451;45.574;14.224;2022-11-15T09:39:46;22.48;;;8.23;;
75814;SDS011;64451;45.574;14.224;2022-11-15T09:48:55;18.58;;;7.80;;
75814;SDS011;64451;45.574;14.224;2022-11-15T09:50:59;17.42;;;6.40;;
75814;SDS011;64451;45.574;14.224;2022-11-15T09:52:59;15.98;;;7.18;;
75814;SDS011;64451;45.574;14.224;2022-11-15T09:55:00;14.13;;;6.47;;
75814;SDS011;64451;45.574;14.224;2022-11-15T10:01:36;12.48;;;5.90;;
75814;SDS011;64451;45.574;14.224;2022-11-15T10:03:44;14.05;;;7.40;;
75814;SDS011;64451;45.574;14.224;2022-11-15T10:05:46;17.80;;;8.48;;
75814;SDS011;64451;45.574;14.224;2022-11-15T10:10:15;18.30;;;8.27;;
75814;SDS011;64451;45.574;14.224;2022-11-15T10:12:31;17.60;;;7.97;;
75814;SDS011;64451;45.574;14.224;2022-11-15T10:14:31;15.90;;;8.88;;
75814;SDS011;64451;45.574;14.224;2022-11-15T10:21:15;21.17;;;7.97;;
75814;SDS011;64451;45.574;14.224;2022-11-15T10:23:20;20.02;;;7.72;;
75814;SDS011;64451;45.574;14.224;2022-11-15T10:27:27;17.90;;;8.68;;
75814;SDS011;64451;45.574;14.224;2022-11-15T10:29:29;16.50;;;7.43;;
75814;SDS011;64451;45.574;14.224;2022-11-15T10:31:29;20.95;;;9.27;;
75814;SDS011;64451;45.574;14.224;2022-11-15T10:33:33;18.75;;;9.52;;
75814;SDS011;64451;45.574;14.224;2022-11-15T10:35:38;19.30;;;7.88;;
75814;SDS011;64451;45.574;14.224;2022-11-15T10:37:39;16.25;;;7.30;;
75814;SDS011;64451;45.574;14.224;2022-11-15T10:39:39;25.65;;;11.63;;
75814;SDS011;64451;45.574;14.224;2022-11-15T10:41:41;16.77;;;8.18;;
75814;SDS011;64451;45.574;14.224;2022-11-15T10:43:42;28.95;;;12.75;;
75814;SDS011;64451;45.574;14.224;2022-11-15T10:45:43;21.60;;;10.02;;
75814;SDS011;64451;45.574;14.224;2022-11-15T10:47:45;30.98;;;10.75;;
75814;SDS011;64451;45.574;14.224;2022-11-15T10:49:56;21.08;;;11.57;;
75814;SDS011;64451;45.574;14.224;2022-11-15T10:52:17;24.00;;;10.40;;
75814;SDS011;64451;45.574;14.224;2022-11-15T10:56:37;13.70;;;6.25;;
75814;SDS011;64451;45.574;14.224;2022-11-15T10:58:44;10.13;;;5.10;;
75814;SDS011;64451;45.574;14.224;2022-11-15T11:00:52;13.90;;;5.95;;
75814;SDS011;64451;45.574;14.224;2022-11-15T11:05:25;10.85;;;5.68;;
75814;SDS011;64451;45.574;14.224;2022-11-15T11:07:28;9.95;;;4.80;;
75814;SDS011;64451;45.574;14.224;2022-11-15T11:09:31;11.75;;;6.05;;
75814;SDS011;64451;45.574;14.224;2022-11-15T11:11:46;11.88;;;5.90;;
75814;SDS011;64451;45.574;14.224;2022-11-15T11:13:48;12.50;;;5.50;;
75814;SDS011;64451;45.574;14.224;2022-11-15T11:15:51;12.40;;;6.20;;
75814;SDS011;64451;45.574;14.224;2022-11-15T11:18:05;10.07;;;5.40;;
75814;SDS011;64451;45.574;14.224;2022-11-15T11:20:33;10.53;;;5.90;;
75814;SDS011;64451;45.574;14.224;2022-11-15T11:31:35;11.77;;;5.93;;
75814;SDS011;64451;45.574;14.224;2022-11-15T11:34:07;9.80;;;5.65;;
75814;SDS011;64451;45.574;14.224;2022-11-15T11:36:50;14.52;;;5.97;;
75814;SDS011;64451;45.574;14.224;2022-11-15T11:48:48;9.68;;;4.63;;
75814;SDS011;64451;45.574;14.224;2022-11-15T11:50:52;11.65;;;3.80;;
75814;SDS011;64451;45.574;14.224;2022-11-15T11:53:03;9.10;;;3.95;;
75814;SDS011;64451;45.574;14.224;2022-11-15T11:57:17;12.23;;;6.75;;
75814;SDS011;64451;45.574;14.224;2022-11-15T11:59:32;10.77;;;5.65;;
75814;SDS011;64451;45.574;14.224;2022-11-15T12:01:53;8.32;;;4.95;;
75814;SDS011;64451;45.574;14.224;2022-11-15T12:03:59;8.10;;;3.10;;
75814;SDS011;64451;45.574;14.224;2022-11-15T12:06:27;7.88;;;4.03;;
75814;SDS011;64451;45.574;14.224;2022-11-15T12:13:19;9.60;;;5.15;;
75814;SDS011;64451;45.574;14.224;2022-11-15T12:15:25;6.85;;;4.15;;
75814;SDS011;64451;45.574;14.224;2022-11-15T12:17:30;5.72;;;2.78;;
75814;SDS011;64451;45.574;14.224;2022-11-15T12:19:32;10.18;;;3.45;;
75814;SDS011;64451;45.574;14.224;2022-11-15T12:24:08;6.55;;;3.50;;
75814;SDS011;64451;45.574;14.224;2022-11-15T12:26:19;7.25;;;3.22;;
75814;SDS011;64451;45.574;14.224;2022-11-15T12:28:44;7.25;;;3.53;;
75814;SDS011;64451;45.574;14.224;2022-11-15T12:30:54;7.28;;;3.45;;
75814;SDS011;64451;45.574;14.224;2022-11-15T12:32:58;7.10;;;3.75;;
75814;SDS011;64451;45.574;14.224;2022-11-15T12:35:00;9.40;;;4.63;;
75814;SDS011;64451;45.574;14.224;2022-11-15T12:37:31;20.23;;;12.48;;
75814;SDS011;64451;45.574;14.224;2022-11-15T12:40:03;9.75;;;4.70;;
75814;SDS011;64451;45.574;14.224;2022-11-15T12:44:15;9.15;;;4.45;;
75814;SDS011;64451;45.574;14.224;2022-11-15T12:50:57;9.95;;;5.50;;
75814;SDS011;64451;45.574;14.224;2022-11-15T12:55:30;14.40;;;9.25;;
75814;SDS011;64451;45.574;14.224;2022-11-15T12:57:33;16.60;;;11.95;;
75814;SDS011;64451;45.574;14.224;2022-11-15T13:02:01;20.42;;;14.70;;
75814;SDS011;64451;45.574;14.224;2022-11-15T13:06:34;16.75;;;11.57;;
75814;SDS011;64451;45.574;14.224;2022-11-15T13:08:45;46.80;;;29.98;;
75814;SDS011;64451;45.574;14.224;2022-11-15T13:10:47;141.45;;;73.57;;
75814;SDS011;64451;45.574;14.224;2022-11-15T13:12:48;38.00;;;22.92;;
75814;SDS011;64451;45.574;14.224;2022-11-15T13:17:00;41.30;;;24.15;;
75814;SDS011;64451;45.574;14.224;2022-11-15T13:19:01;19.02;;;13.15;;
75814;SDS011;64451;45.574;14.224;2022-11-15T13:21:03;25.60;;;16.85;;
75814;SDS011;64451;45.574;14.224;2022-11-15T13:23:38;25.00;;;13.98;;
75814;SDS011;64451;45.574;14.224;2022-11-15T13:30:13;13.93;;;6.35;;
75814;SDS011;64451;45.574;14.224;2022-11-15T13:32:19;65.70;;;31.88;;
75814;SDS011;64451;45.574;14.224;2022-11-15T13:34:27;10.02;;;4.70;;
75814;SDS011;64451;45.574;14.224;2022-11-15T13:36:32;9.98;;;4.80;;
75814;SDS011;64451;45.574;14.224;2022-11-15T13:38:37;10.27;;;5.47;;
75814;SDS011;64451;45.574;14.224;2022-11-15T13:40:41;12.98;;;6.25;;
75814;SDS011;64451;45.574;14.224;2022-11-15T13:42:41;13.02;;;6.85;;
75814;SDS011;64451;45.574;14.224;2022-11-15T13:44:54;19.20;;;13.25;;
75814;SDS011;64451;45.574;14.224;2022-11-15T13:47:04;13.18;;;8.07;;
75814;SDS011;64451;45.574;14.224;2022-11-15T13:49:09;14.07;;;7.35;;
75814;SDS011;64451;45.574;14.224;2022-11-15T13:53:49;12.07;;;5.20;;
75814;SDS011;64451;45.574;14.224;2022-11-15T13:55:55;8.50;;;4.57;;
75814;SDS011;64451;45.574;14.224;2022-11-15T13:57:58;14.27;;;6.53;;
75814;SDS011;64451;45.574;14.224;2022-11-15T14:00:19;7.97;;;4.07;;